Lock Haven, PA

8:53 AM EDT on August 29, 2015 (GMT -0400)
297 McElhattan Drive | | Change Station
CLOSE
Current Station
Personal Weather Station
Location: McElhattan, PA
Elevation: 568 ft
Nearby Weather Stations

Elev 568 ft 41.16 °N, 77.36 °W | Updated 7 minutes ago

Partly Cloudy
Partly Cloudy
55.5 °F
Feels Like 55.5 °F
N
0.0
Wind Variable Wind from NE
Gusts 0.0 mph

Today
High -- | Low -- °F
--% Chance of Precip.
Yesterday
High -- | Low -- °F
Precip. -- in
6:32 AM 7:47 PM
Full, 100% visible
Pressure 30.21 in
Visibility 5.0 miles
Clouds Few 300 ft
Dew Point 54 °F
Humidity 95%
Rainfall 0.00 in
Snow Depth Not available.
UV 0.7 out of 12
Pollen 9.50 out of 12
Air Quality Not available.
Flu Activity Not available.
METAR KIPT 291154Z 00000KT 5SM BR FEW003 13/12 A3021 RMK AO2 SLP229 VSBY NE-SE 1 T01280117 10144 20122 51008
Pressure 30.21 in
Visibility 5.0 miles
Clouds Few 300 ft
Dew Point 54 °F
Humidity 95%
Rainfall 0.00 in
Snow Depth Not available.
UV 0.7 out of 12
Pollen 9.50 out of 12
Air Quality Not available.
Flu Activity Not available.
METAR KIPT 291154Z 00000KT 5SM BR FEW003 13/12 A3021 RMK AO2 SLP229 VSBY NE-SE 1 T01280117 10144 20122 51008

10-Day Weather Forecast

×

Almanac

Astronomy

Aug. 29, 2015 Rise Set
Actual Time
Civil Twilight
Nautical Twilight
Astronomical Twilight
Moon
Length of Visible Light
Length of Day
Tomorrow will be .
, % of the Moon is Illuminated

Today's Extremes

State Highs State Lows

Community

WunderPhotos

Upload Photos

1,850,677 photos uploaded!

WunderBlogs® & News

Nearby

Air Quality

  Air Quality AQ Index Pollutant
Not available.

Snow Depth

Station Depth Elevation

Earthquake Activity

City Distance Mag. Time & Date
Minimum magnitude displayed is 2.5.

Coastal Water Temperatures

Place Temperature

Stations

Nearby Weather Stations

Station Location Temp. Windchill Dew Point Humidity Wind Precip. Elev Updated Type